Austin, Indiana
Current Conditions -  °F | °C
As of 8:53 AM on Friday 28 Nov 2014 (Local Time) from KLOU Reporting Station
Broken Clouds Broken Clouds  
Wind Chill: 22°   Ceiling: 11000
Heat Index: 27°   Visibility: 10mi
Dew Point: 19°   Wind: 5mph
Humidity: 72%   Direction: 190°S
Pressure: 30.42"   Gusts: NA
Location:  38.76°N, 85.81°W
Report Text: KLOU 281353Z 19004KT 10SM BKN110 M03/M07 A3042 RMK AO2 SLP308 T10281072
Loading
Personal Weather Stations






























Interactive Weather Map New forecast layout! Learn more

10-Day Weather Forecast

Advertisements
Track Severe Weather on mobile